Irini — SYZA — position and weather

sailwx.info

Track history (hours):
 
Tides and Currents Weather Stations Pressure Air Temp Water Temp Dewpoint Dewpoint Depression Visibility Wind Speed Wind Dir Waves Ship Positions

Irini

Last reported at 2016-Feb-09 20:27 UTC. Time now 2016-Feb-10 10:54 UTC.
Position N 37°52' E 024°31'.

Length 137 m; draft 7.2 m.

Type: Ship (hazmat cat A). MMSI: 240052000.

Date/timePositionNaut miles runAvg speedWind from/ knotsBaromVisibWave heightAir tempDewpointWater temp
2016-Feb-09 20:27N 37°52' E 024°31'2311.4
2016-Feb-09 18:26N 37°37' E 024°09'1011.2
2016-Feb-09 17:33N 37°37' E 023°57'1111.3
2016-Feb-09 16:33N 37°40' E 023°43'1211.7
2016-Feb-09 15:33N 37°51' E 023°37'9 9.3
2016-Feb-09 14:33N 37°59' E 023°33'3 2.8
2016-Feb-09 13:33N 38°01' E 023°36'0 0.0
2016-Feb-09 12:33N 38°01' E 023°36'0 0.0
2016-Feb-09 11:33N 38°01' E 023°36'0 0.0
2016-Feb-09 10:15N 38°01' E 023°36'0 0.0
2016-Feb-09 09:33N 38°01' E 023°36'0 0.0
2016-Feb-09 08:33N 38°01' E 023°36'0 0.0
2016-Feb-09 07:33N 38°01' E 023°36'0 0.0
2016-Feb-09 06:33N 38°01' E 023°36'0 0.0
2016-Feb-09 05:33N 38°01' E 023°36'0 0.0
2016-Feb-09 04:33N 38°01' E 023°36'0 0.0
2016-Feb-09 03:33N 38°01' E 023°36'0 0.0
2016-Feb-09 02:33N 38°01' E 023°36'0 0.0
2016-Feb-09 01:30N 38°01' E 023°36'0 0.0
2016-Feb-09 00:33N 38°01' E 023°36'0 0.0
2016-Feb-08 23:33N 38°01' E 023°36'0 0.0
2016-Feb-08 22:33N 38°01' E 023°36'0 0.0
2016-Feb-08 21:27N 38°01' E 023°36'0 0.0
2016-Feb-08 20:33N 38°01' E 023°36'0 0.0
2016-Feb-08 19:33N 38°01' E 023°36'0 0.0
2016-Feb-08 18:33N 38°01' E 023°36'0 0.0
2016-Feb-08 17:33N 38°01' E 023°36'0 0.0
2016-Feb-08 16:33N 38°01' E 023°36'0 0.0
2016-Feb-08 15:33N 38°01' E 023°36'0 0.0
2016-Feb-08 14:33N 38°01' E 023°36'0 0.0
2016-Feb-08 13:33N 38°01' E 023°36'0 0.0
2016-Feb-08 12:33N 38°01' E 023°36'0 0.0
2016-Feb-08 11:30N 38°01' E 023°36'0 0.0
2016-Feb-08 10:33N 38°01' E 023°36'0 0.0
2016-Feb-08 09:21N 38°01' E 023°36'0 0.0
2016-Feb-08 08:30N 38°01' E 023°36'0 0.0
2016-Feb-08 07:30N 38°01' E 023°36'0 0.0
2016-Feb-08 06:34N 38°01' E 023°36'5 5.0
2016-Feb-08 05:33N 37°56' E 023°36'10 9.9
2016-Feb-08 04:33N 37°47' E 023°41'1111.0
2016-Feb-08 03:33N 37°39' E 023°50'1211.3
2016-Feb-08 02:27N 37°37' E 024°06'1111.9
2016-Feb-08 01:32N 37°44' E 024°17'4010.0
2016-Feb-07 21:32N 38°22' E 024°29'  
2016-Feb-03 22:22N 37°57' E 024°36'3411.4
2016-Feb-03 19:23N 37°36' E 024°01'1011.7
2016-Feb-03 18:33N 37°38' E 023°49'1111.2
2016-Feb-03 17:33N 37°46' E 023°39'1111.1
2016-Feb-03 16:34N 37°57' E 023°36'6 5.9
2016-Feb-03 15:34N 38°01' E 023°32'1 1.1
2016-Feb-03 14:33N 38°02' E 023°31'0 0.1
2016-Feb-03 13:31N 38°02' E 023°31'0 0.0
2016-Feb-03 12:31N 38°02' E 023°31'0 0.0
2016-Feb-03 11:16N 38°02' E 023°31'0 0.0
2016-Feb-03 10:31N 38°02' E 023°31'0 0.0
2016-Feb-03 09:31N 38°02' E 023°31'0 0.0
2016-Feb-03 08:22N 38°02' E 023°31'0 0.0
2016-Feb-03 07:31N 38°02' E 023°31'0 0.0
2016-Feb-03 06:31N 38°02' E 023°31'0 0.0
2016-Feb-03 05:31N 38°02' E 023°31'0 0.0
2016-Feb-03 04:31N 38°02' E 023°31'0 0.0
2016-Feb-03 03:28N 38°02' E 023°31'0 0.0
2016-Feb-03 02:31N 38°02' E 023°31'0 0.0
2016-Feb-03 01:31N 38°02' E 023°31'0 0.0
2016-Feb-03 00:31N 38°02' E 023°31'0 0.0
2016-Feb-02 23:28N 38°02' E 023°31'0 0.0
2016-Feb-02 22:31N 38°02' E 023°31'0 0.0
2016-Feb-02 21:31N 38°02' E 023°31'0 0.0
2016-Feb-02 20:31N 38°02' E 023°31'0 0.0
2016-Feb-02 19:31N 38°02' E 023°31'0 0.0
2016-Feb-02 18:28N 38°02' E 023°31'0 0.0
2016-Feb-02 17:31N 38°02' E 023°31'0 0.0
2016-Feb-02 16:31N 38°02' E 023°31'0 0.0
2016-Feb-02 15:31N 38°02' E 023°31'0 0.0
2016-Feb-02 14:31N 38°02' E 023°31'0 0.0
2016-Feb-02 13:31N 38°02' E 023°31'0 0.0
2016-Feb-02 12:31N 38°02' E 023°31'0 0.0
2016-Feb-02 11:31N 38°02' E 023°31'0 0.0
2016-Feb-02 10:31N 38°02' E 023°31'1 1.1
2016-Feb-02 09:14N 38°01' E 023°32'0 0.0
2016-Feb-02 08:17N 38°01' E 023°32'0 0.0
2016-Feb-02 07:32N 38°01' E 023°32'0 0.0
2016-Feb-02 06:32N 38°01' E 023°32'0 0.1
2016-Feb-02 05:32N 38°01' E 023°32'0 0.0
2016-Feb-02 04:29N 38°01' E 023°32'0 0.0
2016-Feb-02 03:32N 38°01' E 023°32'0 0.1
2016-Feb-02 02:29N 38°01' E 023°32'0 0.0
2016-Feb-02 01:32N 38°01' E 023°32'0 0.0
2016-Feb-02 00:33N 38°01' E 023°32'0 0.0
2016-Feb-01 23:29N 38°01' E 023°32'0 0.0
2016-Feb-01 22:33N 38°01' E 023°32'0 0.0
2016-Feb-01 21:32N 38°01' E 023°32'0 0.0
2016-Feb-01 20:29N 38°01' E 023°32'0 0.1
2016-Feb-01 19:32N 38°01' E 023°32'0 0.0
2016-Feb-01 18:32N 38°01' E 023°32'0 0.0
2016-Feb-01 17:32N 38°01' E 023°32'0 0.1
2016-Feb-01 16:32N 38°01' E 023°32'0 0.1
2016-Feb-01 15:29N 38°01' E 023°32'0 0.0
2016-Feb-01 14:33N 38°01' E 023°32'0 0.0
2016-Feb-01 13:32N 38°01' E 023°32'0 0.0
2016-Feb-01 12:32N 38°01' E 023°32'0 0.0
2016-Feb-01 11:32N 38°01' E 023°32'0 0.0
2016-Feb-01 10:33N 38°01' E 023°32'0 0.0
2016-Feb-01 09:32N 38°01' E 023°32'0 0.1
2016-Feb-01 08:32N 38°01' E 023°32'0 0.0
2016-Feb-01 07:32N 38°01' E 023°32'0 0.1
2016-Feb-01 06:32N 38°01' E 023°32'0 0.1
2016-Feb-01 05:33N 38°01' E 023°32'0 0.0
2016-Feb-01 04:32N 38°01' E 023°32'0 0.0
2016-Feb-01 03:26N 38°01' E 023°32'0 0.0
2016-Feb-01 02:32N 38°01' E 023°32'0 0.0
2016-Feb-01 01:32N 38°01' E 023°32'0 0.0
2016-Feb-01 00:33N 38°01' E 023°32'0 0.0
2016-Jan-31 23:32N 38°01' E 023°32'0 0.0
2016-Jan-31 22:32N 38°01' E 023°32'0 0.0
2016-Jan-31 21:33N 38°01' E 023°32'0 0.1
2016-Jan-31 20:33N 38°01' E 023°32'0 0.1
2016-Jan-31 19:32N 38°01' E 023°32'0 0.0
2016-Jan-31 18:29N 38°01' E 023°32'0 0.0
2016-Jan-31 17:32N 38°01' E 023°32'0 0.0
2016-Jan-31 16:29N 38°01' E 023°32'0 0.0
2016-Jan-31 15:32N 38°01' E 023°32'0 0.0
2016-Jan-31 14:32N 38°01' E 023°32'0 0.0
2016-Jan-31 13:32N 38°01' E 023°32'0 0.0
2016-Jan-31 12:32N 38°01' E 023°32'0 0.0
2016-Jan-31 11:32N 38°01' E 023°32'0 0.0
2016-Jan-31 10:33N 38°01' E 023°32'0 0.0
2016-Jan-31 09:33N 38°01' E 023°32'0 0.1
2016-Jan-31 08:29N 38°01' E 023°32'0 0.0
2016-Jan-31 07:33N 38°01' E 023°32'0 0.0
2016-Jan-31 06:32N 38°01' E 023°32'0 0.0
2016-Jan-31 05:32N 38°01' E 023°32'0 0.0
2016-Jan-31 04:32N 38°01' E 023°32'0 0.0
2016-Jan-31 03:32N 38°01' E 023°32'0 0.0
2016-Jan-31 02:32N 38°01' E 023°32'0 0.0
2016-Jan-31 01:26N 38°01' E 023°32'0 0.0
2016-Jan-31 00:33N 38°01' E 023°32'0 0.0
2016-Jan-30 23:32N 38°01' E 023°32'0 0.1
2016-Jan-30 22:32N 38°01' E 023°32'0 0.0
2016-Jan-30 21:32N 38°01' E 023°32'0 0.0
2016-Jan-30 20:32N 38°01' E 023°32'  
Track history (hours):
 
Tides and Currents Weather Stations Pressure Air Temp Water Temp Dewpoint Dewpoint Depression Visibility Wind Speed Wind Dir Waves Ship Positions

Irini

Last reported at 2016-Feb-09 20:27 UTC. Time now 2016-Feb-10 10:54 UTC.
Position N 37°52' E 024°31'.

Length 137 m; draft 7.2 m.

Type: Ship (hazmat cat A). MMSI: 240052000.

Date/timePositionNaut miles runAvg speedWind from/ knotsBaromVisibWave heightAir tempDewpointWater temp
2016-Feb-09 20:27N 37°52' E 024°31'2311.4
2016-Feb-09 18:26N 37°37' E 024°09'1011.2
2016-Feb-09 17:33N 37°37' E 023°57'1111.3
2016-Feb-09 16:33N 37°40' E 023°43'1211.7
2016-Feb-09 15:33N 37°51' E 023°37'9 9.3
2016-Feb-09 14:33N 37°59' E 023°33'3 2.8
2016-Feb-09 13:33N 38°01' E 023°36'0 0.0
2016-Feb-09 12:33N 38°01' E 023°36'0 0.0
2016-Feb-09 11:33N 38°01' E 023°36'0 0.0
2016-Feb-09 10:15N 38°01' E 023°36'0 0.0
2016-Feb-09 09:33N 38°01' E 023°36'0 0.0
2016-Feb-09 08:33N 38°01' E 023°36'0 0.0
2016-Feb-09 07:33N 38°01' E 023°36'0 0.0
2016-Feb-09 06:33N 38°01' E 023°36'0 0.0
2016-Feb-09 05:33N 38°01' E 023°36'0 0.0
2016-Feb-09 04:33N 38°01' E 023°36'0 0.0
2016-Feb-09 03:33N 38°01' E 023°36'0 0.0
2016-Feb-09 02:33N 38°01' E 023°36'0 0.0
2016-Feb-09 01:30N 38°01' E 023°36'0 0.0
2016-Feb-09 00:33N 38°01' E 023°36'0 0.0
2016-Feb-08 23:33N 38°01' E 023°36'0 0.0
2016-Feb-08 22:33N 38°01' E 023°36'0 0.0
2016-Feb-08 21:27N 38°01' E 023°36'0 0.0
2016-Feb-08 20:33N 38°01' E 023°36'0 0.0
2016-Feb-08 19:33N 38°01' E 023°36'0 0.0
2016-Feb-08 18:33N 38°01' E 023°36'0 0.0
2016-Feb-08 17:33N 38°01' E 023°36'0 0.0
2016-Feb-08 16:33N 38°01' E 023°36'0 0.0
2016-Feb-08 15:33N 38°01' E 023°36'0 0.0
2016-Feb-08 14:33N 38°01' E 023°36'0 0.0
2016-Feb-08 13:33N 38°01' E 023°36'0 0.0
2016-Feb-08 12:33N 38°01' E 023°36'0 0.0
2016-Feb-08 11:30N 38°01' E 023°36'0 0.0
2016-Feb-08 10:33N 38°01' E 023°36'0 0.0
2016-Feb-08 09:21N 38°01' E 023°36'0 0.0
2016-Feb-08 08:30N 38°01' E 023°36'0 0.0
2016-Feb-08 07:30N 38°01' E 023°36'0 0.0
2016-Feb-08 06:34N 38°01' E 023°36'5 5.0
2016-Feb-08 05:33N 37°56' E 023°36'10 9.9
2016-Feb-08 04:33N 37°47' E 023°41'1111.0
2016-Feb-08 03:33N 37°39' E 023°50'1211.3
2016-Feb-08 02:27N 37°37' E 024°06'1111.9
2016-Feb-08 01:32N 37°44' E 024°17'4010.0
2016-Feb-07 21:32N 38°22' E 024°29'  
2016-Feb-03 22:22N 37°57' E 024°36'3411.4
2016-Feb-03 19:23N 37°36' E 024°01'1011.7
2016-Feb-03 18:33N 37°38' E 023°49'1111.2
2016-Feb-03 17:33N 37°46' E 023°39'1111.1
2016-Feb-03 16:34N 37°57' E 023°36'6 5.9
2016-Feb-03 15:34N 38°01' E 023°32'1 1.1
2016-Feb-03 14:33N 38°02' E 023°31'0 0.1
2016-Feb-03 13:31N 38°02' E 023°31'0 0.0
2016-Feb-03 12:31N 38°02' E 023°31'0 0.0
2016-Feb-03 11:16N 38°02' E 023°31'0 0.0
2016-Feb-03 10:31N 38°02' E 023°31'0 0.0
2016-Feb-03 09:31N 38°02' E 023°31'0 0.0
2016-Feb-03 08:22N 38°02' E 023°31'0 0.0
2016-Feb-03 07:31N 38°02' E 023°31'0 0.0
2016-Feb-03 06:31N 38°02' E 023°31'0 0.0
2016-Feb-03 05:31N 38°02' E 023°31'0 0.0
2016-Feb-03 04:31N 38°02' E 023°31'0 0.0
2016-Feb-03 03:28N 38°02' E 023°31'0 0.0
2016-Feb-03 02:31N 38°02' E 023°31'0 0.0
2016-Feb-03 01:31N 38°02' E 023°31'0 0.0
2016-Feb-03 00:31N 38°02' E 023°31'0 0.0
2016-Feb-02 23:28N 38°02' E 023°31'0 0.0
2016-Feb-02 22:31N 38°02' E 023°31'0 0.0
2016-Feb-02 21:31N 38°02' E 023°31'0 0.0
2016-Feb-02 20:31N 38°02' E 023°31'0 0.0
2016-Feb-02 19:31N 38°02' E 023°31'0 0.0
2016-Feb-02 18:28N 38°02' E 023°31'0 0.0
2016-Feb-02 17:31N 38°02' E 023°31'0 0.0
2016-Feb-02 16:31N 38°02' E 023°31'0 0.0
2016-Feb-02 15:31N 38°02' E 023°31'0 0.0
2016-Feb-02 14:31N 38°02' E 023°31'0 0.0
2016-Feb-02 13:31N 38°02' E 023°31'0 0.0
2016-Feb-02 12:31N 38°02' E 023°31'0 0.0
2016-Feb-02 11:31N 38°02' E 023°31'0 0.0
2016-Feb-02 10:31N 38°02' E 023°31'1 1.1
2016-Feb-02 09:14N 38°01' E 023°32'0 0.0
2016-Feb-02 08:17N 38°01' E 023°32'0 0.0
2016-Feb-02 07:32N 38°01' E 023°32'0 0.0
2016-Feb-02 06:32N 38°01' E 023°32'0 0.1
2016-Feb-02 05:32N 38°01' E 023°32'0 0.0
2016-Feb-02 04:29N 38°01' E 023°32'0 0.0
2016-Feb-02 03:32N 38°01' E 023°32'0 0.1
2016-Feb-02 02:29N 38°01' E 023°32'0 0.0
2016-Feb-02 01:32N 38°01' E 023°32'0 0.0
2016-Feb-02 00:33N 38°01' E 023°32'0 0.0
2016-Feb-01 23:29N 38°01' E 023°32'0 0.0
2016-Feb-01 22:33N 38°01' E 023°32'0 0.0
2016-Feb-01 21:32N 38°01' E 023°32'0 0.0
2016-Feb-01 20:29N 38°01' E 023°32'0 0.1
2016-Feb-01 19:32N 38°01' E 023°32'0 0.0
2016-Feb-01 18:32N 38°01' E 023°32'0 0.0
2016-Feb-01 17:32N 38°01' E 023°32'0 0.1
2016-Feb-01 16:32N 38°01' E 023°32'0 0.1
2016-Feb-01 15:29N 38°01' E 023°32'0 0.0
2016-Feb-01 14:33N 38°01' E 023°32'0 0.0
2016-Feb-01 13:32N 38°01' E 023°32'0 0.0
2016-Feb-01 12:32N 38°01' E 023°32'0 0.0
2016-Feb-01 11:32N 38°01' E 023°32'0 0.0
2016-Feb-01 10:33N 38°01' E 023°32'0 0.0
2016-Feb-01 09:32N 38°01' E 023°32'0 0.1
2016-Feb-01 08:32N 38°01' E 023°32'0 0.0
2016-Feb-01 07:32N 38°01' E 023°32'0 0.1
2016-Feb-01 06:32N 38°01' E 023°32'0 0.1
2016-Feb-01 05:33N 38°01' E 023°32'0 0.0
2016-Feb-01 04:32N 38°01' E 023°32'0 0.0
2016-Feb-01 03:26N 38°01' E 023°32'0 0.0
2016-Feb-01 02:32N 38°01' E 023°32'0 0.0
2016-Feb-01 01:32N 38°01' E 023°32'0 0.0
2016-Feb-01 00:33N 38°01' E 023°32'0 0.0
2016-Jan-31 23:32N 38°01' E 023°32'0 0.0
2016-Jan-31 22:32N 38°01' E 023°32'0 0.0
2016-Jan-31 21:33N 38°01' E 023°32'0 0.1
2016-Jan-31 20:33N 38°01' E 023°32'0 0.1
2016-Jan-31 19:32N 38°01' E 023°32'0 0.0
2016-Jan-31 18:29N 38°01' E 023°32'0 0.0
2016-Jan-31 17:32N 38°01' E 023°32'0 0.0
2016-Jan-31 16:29N 38°01' E 023°32'0 0.0
2016-Jan-31 15:32N 38°01' E 023°32'0 0.0
2016-Jan-31 14:32N 38°01' E 023°32'0 0.0
2016-Jan-31 13:32N 38°01' E 023°32'0 0.0
2016-Jan-31 12:32N 38°01' E 023°32'0 0.0
2016-Jan-31 11:32N 38°01' E 023°32'0 0.0
2016-Jan-31 10:33N 38°01' E 023°32'0 0.0
2016-Jan-31 09:33N 38°01' E 023°32'0 0.1
2016-Jan-31 08:29N 38°01' E 023°32'0 0.0
2016-Jan-31 07:33N 38°01' E 023°32'0 0.0
2016-Jan-31 06:32N 38°01' E 023°32'0 0.0
2016-Jan-31 05:32N 38°01' E 023°32'0 0.0
2016-Jan-31 04:32N 38°01' E 023°32'0 0.0
2016-Jan-31 03:32N 38°01' E 023°32'0 0.0
2016-Jan-31 02:32N 38°01' E 023°32'0 0.0
2016-Jan-31 01:26N 38°01' E 023°32'0 0.0
2016-Jan-31 00:33N 38°01' E 023°32'0 0.0
2016-Jan-30 23:32N 38°01' E 023°32'0 0.1
2016-Jan-30 22:32N 38°01' E 023°32'0 0.0
2016-Jan-30 21:32N 38°01' E 023°32'0 0.0
2016-Jan-30 20:32N 38°01' E 023°32'  

Dump ship's entire track history